sensor_id;sensor_type;location;lat;lon;timestamp;pressure;altitude;pressure_sealevel;temperature;humidity
22572;BME280;11452;53.368;14.658;2022-07-29T00:03:54;101588.07;;;16.77;59.70
22572;BME280;11452;53.368;14.658;2022-07-29T00:08:59;101584.33;;;16.72;59.95
22572;BME280;11452;53.368;14.658;2022-07-29T00:14:05;101582.92;;;16.59;60.26
22572;BME280;11452;53.368;14.658;2022-07-29T00:19:11;101584.17;;;16.61;60.80
22572;BME280;11452;53.368;14.658;2022-07-29T00:24:16;101582.64;;;16.57;60.72
22572;BME280;11452;53.368;14.658;2022-07-29T00:29:23;101576.69;;;16.52;61.03
22572;BME280;11452;53.368;14.658;2022-07-29T00:34:30;101570.09;;;16.43;61.36
22572;BME280;11452;53.368;14.658;2022-07-29T00:39:53;101574.72;;;16.41;61.81
22572;BME280;11452;53.368;14.658;2022-07-29T00:44:59;101567.80;;;16.37;61.69
22572;BME280;11452;53.368;14.658;2022-07-29T00:50:06;101556.33;;;16.34;62.05
22572;BME280;11452;53.368;14.658;2022-07-29T00:55:14;101559.47;;;16.27;62.15
22572;BME280;11452;53.368;14.658;2022-07-29T01:00:22;101558.81;;;16.17;62.52
22572;BME280;11452;53.368;14.658;2022-07-29T01:05:29;101552.55;;;16.16;62.83
22572;BME280;11452;53.368;14.658;2022-07-29T01:10:38;101559.14;;;16.12;63.07
22572;BME280;11452;53.368;14.658;2022-07-29T01:15:47;101561.36;;;16.13;63.37
22572;BME280;11452;53.368;14.658;2022-07-29T01:20:58;101561.84;;;16.12;63.60
22572;BME280;11452;53.368;14.658;2022-07-29T01:26:33;101558.28;;;16.12;63.66
22572;BME280;11452;53.368;14.658;2022-07-29T01:31:45;101552.89;;;16.05;63.71
22572;BME280;11452;53.368;14.658;2022-07-29T01:37:06;101551.94;;;15.99;64.01
22572;BME280;11452;53.368;14.658;2022-07-29T01:42:24;101544.91;;;15.96;64.20
22572;BME280;11452;53.368;14.658;2022-07-29T01:47:37;101544.91;;;15.96;64.44
22572;BME280;11452;53.368;14.658;2022-07-29T01:52:52;101544.56;;;15.95;64.62
22572;BME280;11452;53.368;14.658;2022-07-29T01:57:52;101536.28;;;15.91;64.73
22572;BME280;11452;53.368;14.658;2022-07-29T02:03:04;101536.67;;;15.85;64.93
22572;BME280;11452;53.368;14.658;2022-07-29T02:08:11;101536.87;;;15.82;65.22
22572;BME280;11452;53.368;14.658;2022-07-29T02:13:18;101527.25;;;15.78;65.29
22572;BME280;11452;53.368;14.658;2022-07-29T02:18:27;101524.11;;;15.71;65.54
22572;BME280;11452;53.368;14.658;2022-07-29T02:23:35;101521.31;;;15.66;65.88
22572;BME280;11452;53.368;14.658;2022-07-29T02:28:44;101516.70;;;15.61;65.99
22572;BME280;11452;53.368;14.658;2022-07-29T02:33:52;101517.18;;;15.60;66.34
22572;BME280;11452;53.368;14.658;2022-07-29T02:39:00;101503.55;;;15.56;66.47
22572;BME280;11452;53.368;14.658;2022-07-29T02:44:14;101509.09;;;15.53;66.81
22572;BME280;11452;53.368;14.658;2022-07-29T03:00:03;101493.98;;;15.50;67.31
22572;BME280;11452;53.368;14.658;2022-07-29T03:05:11;101486.48;;;15.48;67.56
22572;BME280;11452;53.368;14.658;2022-07-29T03:10:17;101484.94;;;15.51;67.73
22572;BME280;11452;53.368;14.658;2022-07-29T03:15:24;101471.18;;;15.49;67.94
22572;BME280;11452;53.368;14.658;2022-07-29T03:20:30;101472.43;;;15.50;68.25
22572;BME280;11452;53.368;14.658;2022-07-29T03:25:35;101466.46;;;15.52;68.49
22572;BME280;11452;53.368;14.658;2022-07-29T03:30:41;101465.72;;;15.57;68.68
22572;BME280;11452;53.368;14.658;2022-07-29T03:35:47;101477.42;;;15.64;68.65
22572;BME280;11452;53.368;14.658;2022-07-29T03:40:56;101476.75;;;15.67;69.28
22572;BME280;11452;53.368;14.658;2022-07-29T03:46:02;101476.16;;;15.76;69.61
22572;BME280;11452;53.368;14.658;2022-07-29T03:51:11;101478.71;;;15.85;69.92
22572;BME280;11452;53.368;14.658;2022-07-29T03:56:20;101487.55;;;15.94;70.16
22572;BME280;11452;53.368;14.658;2022-07-29T04:01:26;101483.25;;;16.04;70.31
22572;BME280;11452;53.368;14.658;2022-07-29T04:06:43;101486.22;;;16.14;70.40
22572;BME280;11452;53.368;14.658;2022-07-29T04:11:51;101487.48;;;16.28;70.63
22572;BME280;11452;53.368;14.658;2022-07-29T04:17:01;101487.22;;;16.38;70.80
22572;BME280;11452;53.368;14.658;2022-07-29T04:22:07;101497.78;;;16.48;70.70
22572;BME280;11452;53.368;14.658;2022-07-29T04:27:12;101486.83;;;16.57;70.83
22572;BME280;11452;53.368;14.658;2022-07-29T04:32:18;101488.17;;;16.64;70.96
22572;BME280;11452;53.368;14.658;2022-07-29T04:37:23;101490.97;;;16.75;71.24
22572;BME280;11452;53.368;14.658;2022-07-29T04:42:29;101493.05;;;16.84;71.27
22572;BME280;11452;53.368;14.658;2022-07-29T04:47:35;101495.45;;;16.94;71.37
22572;BME280;11452;53.368;14.658;2022-07-29T04:52:41;101488.39;;;16.99;71.24
22572;BME280;11452;53.368;14.658;2022-07-29T04:57:47;101486.85;;;17.08;71.60
22572;BME280;11452;53.368;14.658;2022-07-29T05:02:52;101486.38;;;17.21;71.56
22572;BME280;11452;53.368;14.658;2022-07-29T05:07:59;101488.02;;;17.29;71.13
22572;BME280;11452;53.368;14.658;2022-07-29T05:13:05;101485.85;;;17.34;71.59
22572;BME280;11452;53.368;14.658;2022-07-29T05:18:11;101483.42;;;17.55;71.57
22572;BME280;11452;53.368;14.658;2022-07-29T05:23:17;101480.44;;;17.65;71.40
22572;BME280;11452;53.368;14.658;2022-07-29T05:28:23;101470.86;;;17.67;71.40
22572;BME280;11452;53.368;14.658;2022-07-29T05:33:28;101472.78;;;17.77;71.58
22572;BME280;11452;53.368;14.658;2022-07-29T05:38:36;101477.59;;;17.79;71.21
22572;BME280;11452;53.368;14.658;2022-07-29T05:43:41;101477.70;;;17.78;70.87
22572;BME280;11452;53.368;14.658;2022-07-29T05:48:47;101471.17;;;17.75;70.96
22572;BME280;11452;53.368;14.658;2022-07-29T05:53:53;101476.36;;;17.83;71.12
22572;BME280;11452;53.368;14.658;2022-07-29T05:58:58;101473.02;;;18.04;71.46
22572;BME280;11452;53.368;14.658;2022-07-29T06:04:04;101468.05;;;18.16;70.95
22572;BME280;11452;53.368;14.658;2022-07-29T06:09:10;101465.77;;;18.33;71.25
22572;BME280;11452;53.368;14.658;2022-07-29T06:14:17;101463.98;;;18.51;71.05
22572;BME280;11452;53.368;14.658;2022-07-29T06:19:24;101466.63;;;18.69;71.58
22572;BME280;11452;53.368;14.658;2022-07-29T06:24:30;101457.30;;;19.23;71.20
22572;BME280;11452;53.368;14.658;2022-07-29T06:29:35;101453.94;;;19.64;71.14
22572;BME280;11452;53.368;14.658;2022-07-29T06:34:41;101460.05;;;19.83;70.04
22572;BME280;11452;53.368;14.658;2022-07-29T06:39:48;101461.05;;;20.09;69.67
22572;BME280;11452;53.368;14.658;2022-07-29T06:44:57;101468.47;;;20.33;68.63
22572;BME280;11452;53.368;14.658;2022-07-29T06:50:06;101480.03;;;20.46;67.74
22572;BME280;11452;53.368;14.658;2022-07-29T06:55:13;101477.95;;;20.65;67.20
22572;BME280;11452;53.368;14.658;2022-07-29T07:00:21;101469.01;;;20.74;66.52
22572;BME280;11452;53.368;14.658;2022-07-29T07:05:26;101478.27;;;20.92;66.18
22572;BME280;11452;53.368;14.658;2022-07-29T07:10:33;101474.58;;;21.24;65.73
22572;BME280;11452;53.368;14.658;2022-07-29T07:15:39;101471.56;;;21.42;64.83
22572;BME280;11452;53.368;14.658;2022-07-29T07:20:45;101464.48;;;21.80;64.84
22572;BME280;11452;53.368;14.658;2022-07-29T07:25:52;101468.94;;;21.90;62.81
22572;BME280;11452;53.368;14.658;2022-07-29T07:30:59;101464.03;;;22.09;63.02
22572;BME280;11452;53.368;14.658;2022-07-29T07:36:05;101460.45;;;22.28;61.58
22572;BME280;11452;53.368;14.658;2022-07-29T07:41:12;101450.06;;;22.37;61.20
22572;BME280;11452;53.368;14.658;2022-07-29T07:46:17;101462.10;;;22.34;59.68
22572;BME280;11452;53.368;14.658;2022-07-29T07:51:23;101457.73;;;22.37;59.40
22572;BME280;11452;53.368;14.658;2022-07-29T07:56:29;101455.50;;;22.27;59.20
22572;BME280;11452;53.368;14.658;2022-07-29T08:01:36;101454.63;;;22.56;59.29
22572;BME280;11452;53.368;14.658;2022-07-29T08:06:44;101455.27;;;22.63;58.60
22572;BME280;11452;53.368;14.658;2022-07-29T08:11:50;101462.00;;;22.78;58.52
22572;BME280;11452;53.368;14.658;2022-07-29T08:16:56;101456.84;;;22.99;58.42
22572;BME280;11452;53.368;14.658;2022-07-29T08:22:02;101461.95;;;23.39;57.84
22572;BME280;11452;53.368;14.658;2022-07-29T08:27:07;101463.76;;;23.71;58.05
22572;BME280;11452;53.368;14.658;2022-07-29T08:32:15;101469.24;;;23.89;56.43
22572;BME280;11452;53.368;14.658;2022-07-29T08:37:22;101469.81;;;23.97;56.15
22572;BME280;11452;53.368;14.658;2022-07-29T08:42:28;101470.41;;;24.22;55.30
22572;BME280;11452;53.368;14.658;2022-07-29T08:47:34;101474.42;;;24.49;54.79
22572;BME280;11452;53.368;14.658;2022-07-29T08:52:42;101469.41;;;24.41;53.69
22572;BME280;11452;53.368;14.658;2022-07-29T08:57:53;101472.73;;;24.31;53.04
22572;BME280;11452;53.368;14.658;2022-07-29T09:03:00;101470.34;;;24.32;52.26
22572;BME280;11452;53.368;14.658;2022-07-29T09:08:07;101476.41;;;24.39;52.81
22572;BME280;11452;53.368;14.658;2022-07-29T09:13:13;101470.16;;;24.73;52.28
22572;BME280;11452;53.368;14.658;2022-07-29T09:18:40;101468.13;;;24.75;51.39
22572;BME280;11452;53.368;14.658;2022-07-29T09:24:07;101467.02;;;25.11;52.06
22572;BME280;11452;53.368;14.658;2022-07-29T09:29:16;101459.28;;;25.37;50.70
22572;BME280;11452;53.368;14.658;2022-07-29T09:34:25;101460.48;;;25.38;49.82
22572;BME280;11452;53.368;14.658;2022-07-29T09:39:39;101459.26;;;25.33;48.43
22572;BME280;11452;53.368;14.658;2022-07-29T09:44:49;101458.27;;;25.46;49.00
22572;BME280;11452;53.368;14.658;2022-07-29T09:49:57;101461.00;;;25.88;49.07
22572;BME280;11452;53.368;14.658;2022-07-29T09:55:09;101459.16;;;26.21;48.46
22572;BME280;11452;53.368;14.658;2022-07-29T10:00:19;101456.58;;;26.07;46.94
22572;BME280;11452;53.368;14.658;2022-07-29T10:05:27;101459.84;;;26.07;47.40
22572;BME280;11452;53.368;14.658;2022-07-29T10:10:37;101455.91;;;26.13;46.89
22572;BME280;11452;53.368;14.658;2022-07-29T10:15:43;101447.16;;;25.94;45.81
22572;BME280;11452;53.368;14.658;2022-07-29T10:20:51;101444.95;;;26.13;46.34
22572;BME280;11452;53.368;14.658;2022-07-29T10:25:57;101448.91;;;26.39;45.75
22572;BME280;11452;53.368;14.658;2022-07-29T10:31:07;101444.94;;;26.21;45.91
22572;BME280;11452;53.368;14.658;2022-07-29T10:36:27;101440.33;;;26.63;45.75
22572;BME280;11452;53.368;14.658;2022-07-29T10:41:56;101439.81;;;26.63;44.48
22572;BME280;11452;53.368;14.658;2022-07-29T10:46:59;101437.89;;;26.88;44.16
22572;BME280;11452;53.368;14.658;2022-07-29T10:52:09;101427.77;;;26.88;43.92
22572;BME280;11452;53.368;14.658;2022-07-29T10:57:29;101428.61;;;26.97;43.01
22572;BME280;11452;53.368;14.658;2022-07-29T11:02:42;101425.80;;;27.17;43.29
22572;BME280;11452;53.368;14.658;2022-07-29T11:24:21;101414.88;;;27.44;41.07
22572;BME280;11452;53.368;14.658;2022-07-29T11:29:30;101412.84;;;27.38;40.07
22572;BME280;11452;53.368;14.658;2022-07-29T11:34:38;101415.17;;;27.57;39.32
22572;BME280;11452;53.368;14.658;2022-07-29T11:40:07;101409.25;;;27.96;38.58
22572;BME280;11452;53.368;14.658;2022-07-29T11:44:58;101408.45;;;28.10;37.32
22572;BME280;11452;53.368;14.658;2022-07-29T11:50:10;101411.40;;;28.04;36.51
22572;BME280;11452;53.368;14.658;2022-07-29T11:55:19;101416.17;;;27.87;35.45
22572;BME280;11452;53.368;14.658;2022-07-29T12:05:44;101419.11;;;28.09;33.86
22572;BME280;11452;53.368;14.658;2022-07-29T12:10:52;101409.34;;;28.29;34.17
22572;BME280;11452;53.368;14.658;2022-07-29T12:15:58;101395.70;;;28.54;33.48
22572;BME280;11452;53.368;14.658;2022-07-29T12:21:05;101390.47;;;28.59;33.09
22572;BME280;11452;53.368;14.658;2022-07-29T12:26:14;101390.02;;;28.71;32.48
22572;BME280;11452;53.368;14.658;2022-07-29T12:31:21;101380.42;;;28.85;31.25
22572;BME280;11452;53.368;14.658;2022-07-29T12:36:29;101375.14;;;28.46;31.59
22572;BME280;11452;53.368;14.658;2022-07-29T12:41:35;101384.06;;;28.48;31.54
22572;BME280;11452;53.368;14.658;2022-07-29T12:46:41;101382.36;;;28.62;31.88
22572;BME280;11452;53.368;14.658;2022-07-29T12:51:46;101374.55;;;28.55;31.07
22572;BME280;11452;53.368;14.658;2022-07-29T12:56:58;101371.34;;;28.47;31.52
22572;BME280;11452;53.368;14.658;2022-07-29T13:02:00;101372.20;;;28.63;31.39
22572;BME280;11452;53.368;14.658;2022-07-29T13:07:07;101371.47;;;28.69;31.28
22572;BME280;11452;53.368;14.658;2022-07-29T13:12:14;101367.56;;;28.63;31.28
22572;BME280;11452;53.368;14.658;2022-07-29T13:17:22;101373.47;;;28.75;31.78
22572;BME280;11452;53.368;14.658;2022-07-29T13:22:28;101360.23;;;28.74;31.06
22572;BME280;11452;53.368;14.658;2022-07-29T13:27:36;101364.45;;;28.95;30.95
22572;BME280;11452;53.368;14.658;2022-07-29T13:32:42;101353.03;;;28.88;30.46
22572;BME280;11452;53.368;14.658;2022-07-29T13:37:47;101352.57;;;28.51;30.83
22572;BME280;11452;53.368;14.658;2022-07-29T13:42:54;101344.50;;;28.12;31.03
22572;BME280;11452;53.368;14.658;2022-07-29T13:48:00;101351.70;;;28.36;31.48
22572;BME280;11452;53.368;14.658;2022-07-29T13:53:05;101341.71;;;28.53;31.57
22572;BME280;11452;53.368;14.658;2022-07-29T13:58:11;101339.52;;;28.64;31.36
22572;BME280;11452;53.368;14.658;2022-07-29T14:03:17;101324.27;;;28.90;31.29
22572;BME280;11452;53.368;14.658;2022-07-29T14:08:25;101334.19;;;28.81;31.01
22572;BME280;11452;53.368;14.658;2022-07-29T14:13:31;101337.02;;;28.73;31.11
22572;BME280;11452;53.368;14.658;2022-07-29T14:18:36;101328.24;;;28.73;30.81
22572;BME280;11452;53.368;14.658;2022-07-29T14:23:42;101323.41;;;28.75;30.44
22572;BME280;11452;53.368;14.658;2022-07-29T14:28:49;101317.12;;;29.11;30.75
22572;BME280;11452;53.368;14.658;2022-07-29T14:33:55;101314.70;;;29.22;30.03
22572;BME280;11452;53.368;14.658;2022-07-29T14:39:02;101312.05;;;29.14;29.91
22572;BME280;11452;53.368;14.658;2022-07-29T14:44:08;101309.72;;;29.22;30.25
22572;BME280;11452;53.368;14.658;2022-07-29T14:49:14;101303.44;;;29.39;29.96
22572;BME280;11452;53.368;14.658;2022-07-29T14:54:20;101304.75;;;29.68;29.82
22572;BME280;11452;53.368;14.658;2022-07-29T14:59:26;101310.45;;;29.67;29.28
22572;BME280;11452;53.368;14.658;2022-07-29T15:04:31;101306.70;;;29.63;29.60
22572;BME280;11452;53.368;14.658;2022-07-29T15:09:37;101296.07;;;30.03;29.33
22572;BME280;11452;53.368;14.658;2022-07-29T15:14:44;101297.41;;;29.92;28.71
22572;BME280;11452;53.368;14.658;2022-07-29T15:19:50;101301.71;;;29.84;28.48
22572;BME280;11452;53.368;14.658;2022-07-29T15:24:55;101293.18;;;30.01;28.77
22572;BME280;11452;53.368;14.658;2022-07-29T15:30:01;101294.23;;;30.00;28.51
22572;BME280;11452;53.368;14.658;2022-07-29T15:35:07;101290.45;;;29.96;28.64
22572;BME280;11452;53.368;14.658;2022-07-29T15:40:14;101288.13;;;30.04;28.29
22572;BME280;11452;53.368;14.658;2022-07-29T15:45:20;101283.02;;;30.18;28.44
22572;BME280;11452;53.368;14.658;2022-07-29T15:50:26;101280.51;;;29.85;27.80
22572;BME280;11452;53.368;14.658;2022-07-29T15:55:31;101274.53;;;29.81;28.43
22572;BME280;11452;53.368;14.658;2022-07-29T16:00:37;101271.05;;;30.05;29.12
22572;BME280;11452;53.368;14.658;2022-07-29T16:05:43;101270.23;;;30.45;28.21
22572;BME280;11452;53.368;14.658;2022-07-29T16:10:48;101268.91;;;30.35;27.72
22572;BME280;11452;53.368;14.658;2022-07-29T16:15:54;101270.95;;;30.43;28.00
22572;BME280;11452;53.368;14.658;2022-07-29T16:21:01;101267.85;;;30.36;27.24
22572;BME280;11452;53.368;14.658;2022-07-29T16:26:07;101268.45;;;30.14;27.75
22572;BME280;11452;53.368;14.658;2022-07-29T16:31:13;101269.67;;;30.05;27.65
22572;BME280;11452;53.368;14.658;2022-07-29T16:36:19;101269.34;;;29.82;27.48
22572;BME280;11452;53.368;14.658;2022-07-29T16:41:25;101264.37;;;30.10;27.24
22572;BME280;11452;53.368;14.658;2022-07-29T16:46:33;101264.88;;;29.39;27.79
22572;BME280;11452;53.368;14.658;2022-07-29T16:51:41;101256.72;;;29.20;28.46
22572;BME280;11452;53.368;14.658;2022-07-29T16:56:47;101253.92;;;29.24;28.96
22572;BME280;11452;53.368;14.658;2022-07-29T17:01:53;101247.11;;;29.52;29.44
22572;BME280;11452;53.368;14.658;2022-07-29T17:06:58;101251.92;;;29.43;28.69
22572;BME280;11452;53.368;14.658;2022-07-29T17:12:05;101250.16;;;29.46;28.56
22572;BME280;11452;53.368;14.658;2022-07-29T17:17:10;101245.02;;;29.65;28.38
22572;BME280;11452;53.368;14.658;2022-07-29T17:22:18;101242.92;;;29.94;28.62
22572;BME280;11452;53.368;14.658;2022-07-29T17:27:24;101239.41;;;30.01;28.70
22572;BME280;11452;53.368;14.658;2022-07-29T17:32:29;101235.91;;;30.54;28.79
22572;BME280;11452;53.368;14.658;2022-07-29T17:37:36;101231.59;;;30.62;27.59
22572;BME280;11452;53.368;14.658;2022-07-29T17:42:42;101228.51;;;30.44;27.32
22572;BME280;11452;53.368;14.658;2022-07-29T17:47:48;101228.12;;;30.13;27.54
22572;BME280;11452;53.368;14.658;2022-07-29T17:52:53;101223.01;;;30.10;27.30
22572;BME280;11452;53.368;14.658;2022-07-29T17:57:59;101233.51;;;29.72;27.44
22572;BME280;11452;53.368;14.658;2022-07-29T18:03:05;101228.17;;;29.42;27.30
22572;BME280;11452;53.368;14.658;2022-07-29T18:08:10;101234.05;;;29.28;27.63
22572;BME280;11452;53.368;14.658;2022-07-29T18:13:16;101227.31;;;29.42;28.82
22572;BME280;11452;53.368;14.658;2022-07-29T18:18:21;101226.25;;;29.53;28.81
22572;BME280;11452;53.368;14.658;2022-07-29T18:23:27;101224.50;;;29.46;28.47
22572;BME280;11452;53.368;14.658;2022-07-29T18:28:33;101221.23;;;28.89;28.38
22572;BME280;11452;53.368;14.658;2022-07-29T18:33:38;101225.64;;;28.54;28.89
22572;BME280;11452;53.368;14.658;2022-07-29T18:38:44;101226.53;;;28.21;29.36
22572;BME280;11452;53.368;14.658;2022-07-29T18:43:50;101229.42;;;27.90;29.74
22572;BME280;11452;53.368;14.658;2022-07-29T18:48:57;101240.00;;;27.64;30.16
22572;BME280;11452;53.368;14.658;2022-07-29T18:54:03;101247.34;;;27.44;30.80
22572;BME280;11452;53.368;14.658;2022-07-29T18:59:09;101251.29;;;27.19;31.64
22572;BME280;11452;53.368;14.658;2022-07-29T19:04:16;101245.41;;;26.91;32.36
22572;BME280;11452;53.368;14.658;2022-07-29T19:09:21;101255.00;;;26.60;33.17
22572;BME280;11452;53.368;14.658;2022-07-29T19:14:27;101254.07;;;26.29;33.92
22572;BME280;11452;53.368;14.658;2022-07-29T19:19:32;101263.05;;;25.94;34.55
22572;BME280;11452;53.368;14.658;2022-07-29T19:24:39;101259.64;;;25.64;35.23
22572;BME280;11452;53.368;14.658;2022-07-29T19:29:46;101276.88;;;25.32;35.86
22572;BME280;11452;53.368;14.658;2022-07-29T19:34:52;101276.14;;;25.01;36.72
22572;BME280;11452;53.368;14.658;2022-07-29T19:40:15;101270.04;;;24.77;37.29
22572;BME280;11452;53.368;14.658;2022-07-29T19:45:22;101273.17;;;24.48;37.94
22572;BME280;11452;53.368;14.658;2022-07-29T19:50:29;101274.59;;;24.27;38.53
22572;BME280;11452;53.368;14.658;2022-07-29T19:55:35;101270.14;;;24.04;39.09
22572;BME280;11452;53.368;14.658;2022-07-29T20:00:40;101268.47;;;23.85;39.64
22572;BME280;11452;53.368;14.658;2022-07-29T20:05:47;101264.17;;;23.61;40.16
22572;BME280;11452;53.368;14.658;2022-07-29T20:10:56;101271.33;;;23.44;40.73
22572;BME280;11452;53.368;14.658;2022-07-29T20:16:02;101273.00;;;23.23;41.22
22572;BME280;11452;53.368;14.658;2022-07-29T20:21:09;101272.48;;;23.06;41.64
22572;BME280;11452;53.368;14.658;2022-07-29T20:26:16;101277.91;;;22.88;42.19
22572;BME280;11452;53.368;14.658;2022-07-29T20:31:22;101279.41;;;22.73;42.61
22572;BME280;11452;53.368;14.658;2022-07-29T20:36:28;101280.00;;;22.53;43.04
22572;BME280;11452;53.368;14.658;2022-07-29T20:41:33;101280.35;;;22.40;43.47
22572;BME280;11452;53.368;14.658;2022-07-29T20:46:39;101285.93;;;22.25;44.01
22572;BME280;11452;53.368;14.658;2022-07-29T20:51:45;101289.75;;;22.09;44.38
22572;BME280;11452;53.368;14.658;2022-07-29T20:56:51;101294.20;;;21.91;44.83
22572;BME280;11452;53.368;14.658;2022-07-29T21:01:56;101292.08;;;21.75;45.17
22572;BME280;11452;53.368;14.658;2022-07-29T21:07:03;101298.91;;;21.65;45.77
22572;BME280;11452;53.368;14.658;2022-07-29T21:12:09;101293.67;;;21.58;46.07
22572;BME280;11452;53.368;14.658;2022-07-29T21:17:15;101291.46;;;21.48;46.42
22572;BME280;11452;53.368;14.658;2022-07-29T21:22:24;101283.78;;;21.38;46.67
22572;BME280;11452;53.368;14.658;2022-07-29T21:27:30;101292.95;;;21.27;46.95
22572;BME280;11452;53.368;14.658;2022-07-29T21:32:54;101285.95;;;21.19;47.38
22572;BME280;11452;53.368;14.658;2022-07-29T21:37:59;101292.48;;;21.13;47.56
22572;BME280;11452;53.368;14.658;2022-07-29T21:43:05;101297.07;;;20.97;47.85
22572;BME280;11452;53.368;14.658;2022-07-29T21:48:13;101297.28;;;20.90;48.35
22572;BME280;11452;53.368;14.658;2022-07-29T21:53:19;101302.95;;;20.92;48.51
22572;BME280;11452;53.368;14.658;2022-07-29T21:58:26;101290.36;;;20.91;48.59
22572;BME280;11452;53.368;14.658;2022-07-29T22:03:31;101293.26;;;20.84;48.65
22572;BME280;11452;53.368;14.658;2022-07-29T22:08:37;101293.17;;;20.80;48.87
22572;BME280;11452;53.368;14.658;2022-07-29T22:13:44;101296.46;;;20.74;48.89
22572;BME280;11452;53.368;14.658;2022-07-29T22:18:50;101301.30;;;20.70;48.95
22572;BME280;11452;53.368;14.658;2022-07-29T22:23:55;101291.25;;;20.61;48.96
22572;BME280;11452;53.368;14.658;2022-07-29T22:29:01;101292.91;;;20.58;48.90
22572;BME280;11452;53.368;14.658;2022-07-29T22:34:06;101293.31;;;20.54;48.78
22572;BME280;11452;53.368;14.658;2022-07-29T22:39:14;101301.20;;;20.36;48.73
22572;BME280;11452;53.368;14.658;2022-07-29T22:44:19;101298.89;;;20.31;49.21
22572;BME280;11452;53.368;14.658;2022-07-29T22:49:25;101300.02;;;20.29;49.19
22572;BME280;11452;53.368;14.658;2022-07-29T22:54:32;101299.41;;;20.25;49.44
22572;BME280;11452;53.368;14.658;2022-07-29T22:59:38;101290.70;;;20.22;49.42
22572;BME280;11452;53.368;14.658;2022-07-29T23:04:43;101288.75;;;20.18;49.47
22572;BME280;11452;53.368;14.658;2022-07-29T23:09:49;101287.19;;;20.10;49.46
22572;BME280;11452;53.368;14.658;2022-07-29T23:14:54;101287.56;;;20.11;49.58
22572;BME280;11452;53.368;14.658;2022-07-29T23:20:00;101291.22;;;20.00;49.55
22572;BME280;11452;53.368;14.658;2022-07-29T23:25:06;101282.59;;;20.01;49.77
22572;BME280;11452;53.368;14.658;2022-07-29T23:30:12;101287.28;;;19.99;49.76
22572;BME280;11452;53.368;14.658;2022-07-29T23:35:18;101285.45;;;19.94;49.87
22572;BME280;11452;53.368;14.658;2022-07-29T23:40:24;101284.91;;;19.85;49.95
22572;BME280;11452;53.368;14.658;2022-07-29T23:45:30;101283.06;;;19.85;50.06
22572;BME280;11452;53.368;14.658;2022-07-29T23:50:37;101281.34;;;19.84;50.08
22572;BME280;11452;53.368;14.658;2022-07-29T23:55:42;101275.44;;;19.79;50.14
